TimeEST,TemperatureF,Dew PointF,Humidity,Sea Level PressureIn,VisibilityMPH,Wind Direction,Wind SpeedMPH,Gust SpeedMPH,PrecipitationIn,Events,Conditions,WindDirDegrees,DateUTC
12:15 AM,31.8,28.4,87,30.34,10.0,Calm,Calm,-,N/A,,Overcast,0,2013-03-08 05:15:00
12:35 AM,31.1,28.4,90,30.33,10.0,West,4.6,-,N/A,,Mostly Cloudy,260,2013-03-08 05:35:00
12:55 AM,30.7,28.4,91,30.33,10.0,Calm,Calm,-,N/A,,Scattered Clouds,0,2013-03-08 05:55:00
1:15 AM,30.6,28.0,90,30.33,10.0,Calm,Calm,-,N/A,,Clear,0,2013-03-08 06:15:00
1:35 AM,30.7,27.5,88,30.34,10.0,Calm,Calm,-,N/A,,Clear,0,2013-03-08 06:35:00
1:55 AM,30.2,27.5,90,30.34,10.0,Calm,Calm,-,N/A,,Clear,0,2013-03-08 06:55:00
2:15 AM,30.2,27.5,90,30.33,10.0,Calm,Calm,-,N/A,,Clear,0,2013-03-08 07:15:00
2:35 AM,30.0,28.0,92,30.32,10.0,Calm,Calm,-,N/A,,Clear,0,2013-03-08 07:35:00
2:55 AM,29.3,28.0,95,30.33,10.0,Calm,Calm,-,N/A,,Mostly Cloudy,0,2013-03-08 07:55:00
3:15 AM,28.9,28.2,97,30.33,5.0,Calm,Calm,-,N/A,,Scattered Clouds,0,2013-03-08 08:15:00
3:35 AM,28.9,28.4,98,30.33,5.0,Calm,Calm,-,N/A,,Clear,0,2013-03-08 08:35:00
3:55 AM,28.9,28.0,96,30.33,10.0,WNW,3.5,-,N/A,,Scattered Clouds,290,2013-03-08 08:55:00
4:15 AM,28.4,27.5,96,30.34,7.0,West,3.5,-,N/A,,Scattered Clouds,260,2013-03-08 09:15:00
4:35 AM,29.7,28.2,94,30.34,10.0,Calm,Calm,-,N/A,,Overcast,0,2013-03-08 09:35:00
4:55 AM,29.5,27.5,92,30.34,10.0,Calm,Calm,-,N/A,,Overcast,0,2013-03-08 09:55:00
5:15 AM,29.1,27.5,94,30.34,10.0,Calm,Calm,-,N/A,,Overcast,0,2013-03-08 10:15:00
5:35 AM,28.6,27.3,95,30.35,10.0,Calm,Calm,-,N/A,,Scattered Clouds,0,2013-03-08 10:35:00
5:55 AM,28.4,27.1,95,30.35,10.0,Calm,Calm,-,N/A,,Clear,0,2013-03-08 10:55:00
6:15 AM,28.4,27.1,95,30.36,7.0,Calm,Calm,-,N/A,,Scattered Clouds,0,2013-03-08 11:15:00
6:35 AM,28.2,27.1,96,30.37,5.0,WNW,3.5,-,N/A,,Scattered Clouds,290,2013-03-08 11:35:00
7:15 AM,28.4,27.5,96,30.39,7.0,WNW,3.5,-,N/A,,Mostly Cloudy,300,2013-03-08 12:15:00
7:35 AM,28.8,27.9,96,30.40,5.0,WNW,3.5,-,N/A,,Overcast,300,2013-03-08 12:35:00
7:55 AM,29.3,28.2,96,30.41,7.0,WNW,3.5,-,N/A,,Overcast,300,2013-03-08 12:55:00
8:15 AM,30.2,28.9,95,30.42,7.0,Calm,Calm,-,N/A,,Overcast,0,2013-03-08 13:15:00
8:35 AM,30.6,29.1,94,30.42,7.0,NNW,3.5,-,N/A,,Overcast,330,2013-03-08 13:35:00
8:55 AM,30.9,29.1,93,30.42,7.0,North,3.5,-,N/A,,Overcast,10,2013-03-08 13:55:00
9:15 AM,31.6,29.5,92,30.41,7.0,North,6.9,-,N/A,,Overcast,10,2013-03-08 14:15:00
9:35 AM,32.2,30.2,92,30.41,10.0,NNE,4.6,-,N/A,,Overcast,30,2013-03-08 14:35:00
9:55 AM,32.9,30.4,90,30.42,10.0,NNE,4.6,-,N/A,,Overcast,30,2013-03-08 14:55:00
10:15 AM,33.6,30.4,88,30.42,10.0,ENE,6.9,-,N/A,,Overcast,60,2013-03-08 15:15:00
10:35 AM,34.7,30.0,83,30.42,10.0,ENE,5.8,-,N/A,,Overcast,60,2013-03-08 15:35:00
10:55 AM,37.0,30.7,78,30.41,10.0,ENE,4.6,-,N/A,,Overcast,60,2013-03-08 15:55:00
11:15 AM,35.6,28.0,74,30.41,10.0,North,4.6,-,N/A,,Mostly Cloudy,10,2013-03-08 16:15:00
11:35 AM,37.2,28.0,69,30.41,10.0,Calm,Calm,-,N/A,,Overcast,0,2013-03-08 16:35:00
11:55 AM,37.8,28.6,69,30.41,10.0,North,4.6,-,N/A,,Overcast,360,2013-03-08 16:55:00
12:15 PM,36.9,27.3,68,30.41,10.0,North,4.6,-,N/A,,Overcast,350,2013-03-08 17:15:00
12:35 PM,38.1,27.7,66,30.40,10.0,North,3.5,-,N/A,,Overcast,10,2013-03-08 17:35:00
12:55 PM,41.0,29.3,63,30.39,10.0,NNE,4.6,-,N/A,,Mostly Cloudy,20,2013-03-08 17:55:00
1:15 PM,40.5,27.3,59,30.38,10.0,North,3.5,-,N/A,,Mostly Cloudy,360,2013-03-08 18:15:00
1:35 PM,39.6,27.0,61,30.38,10.0,WNW,3.5,-,N/A,,Overcast,290,2013-03-08 18:35:00
1:55 PM,40.8,27.0,58,30.37,10.0,West,4.6,-,N/A,,Mostly Cloudy,260,2013-03-08 18:55:00
2:15 PM,41.4,26.8,56,30.37,10.0,Calm,Calm,-,N/A,,Mostly Cloudy,0,2013-03-08 19:15:00
2:35 PM,42.3,27.0,55,30.37,10.0,WNW,4.6,-,N/A,,Scattered Clouds,300,2013-03-08 19:35:00
2:55 PM,42.8,26.2,52,30.37,10.0,Calm,Calm,-,N/A,,Scattered Clouds,0,2013-03-08 19:55:00
3:15 PM,43.2,27.0,53,30.37,10.0,North,4.6,-,N/A,,Scattered Clouds,360,2013-03-08 20:15:00
3:35 PM,43.2,26.6,52,30.37,10.0,Calm,Calm,-,N/A,,Scattered Clouds,0,2013-03-08 20:35:00
3:55 PM,43.5,26.2,51,30.36,10.0,Calm,Calm,-,N/A,,Clear,0,2013-03-08 20:55:00
4:15 PM,43.9,26.1,50,30.37,10.0,NW,3.5,-,N/A,,Clear,310,2013-03-08 21:15:00
4:35 PM,44.1,25.5,48,30.36,10.0,North,3.5,-,N/A,,Clear,360,2013-03-08 21:35:00
4:55 PM,43.7,25.7,49,30.34,10.0,NNE,3.5,-,N/A,,Clear,20,2013-03-08 21:55:00
5:15 PM,43.9,26.2,50,30.34,10.0,East,4.6,-,N/A,,Clear,90,2013-03-08 22:15:00
5:35 PM,43.0,25.3,50,30.34,10.0,NE,5.8,-,N/A,,Clear,40,2013-03-08 22:35:00
5:55 PM,42.4,24.8,50,30.34,10.0,NNE,4.6,-,N/A,,Clear,20,2013-03-08 22:55:00
6:15 PM,41.5,24.8,51,30.34,10.0,Calm,Calm,-,N/A,,Clear,0,2013-03-08 23:15:00
6:35 PM,41.7,24.8,51,30.34,10.0,Calm,Calm,-,N/A,,Clear,0,2013-03-08 23:35:00
6:55 PM,40.5,24.4,53,30.34,10.0,Calm,Calm,-,N/A,,Clear,0,2013-03-08 23:55:00
7:15 PM,40.3,24.6,54,30.35,10.0,Calm,Calm,-,N/A,,Clear,0,2013-03-09 00:15:00
7:35 PM,39.9,24.1,53,30.35,10.0,Calm,Calm,-,N/A,,Clear,0,2013-03-09 00:35:00
7:55 PM,39.0,24.8,57,30.35,10.0,Calm,Calm,-,N/A,,Clear,0,2013-03-09 00:55:00
8:15 PM,38.3,24.4,57,30.35,10.0,Calm,Calm,-,N/A,,Clear,0,2013-03-09 01:15:00
8:35 PM,39.7,24.8,55,30.36,10.0,Calm,Calm,-,N/A,,Clear,0,2013-03-09 01:35:00
8:55 PM,37.8,24.4,59,30.36,10.0,Calm,Calm,-,N/A,,Clear,0,2013-03-09 01:55:00
9:15 PM,37.8,25.7,62,30.37,10.0,Calm,Calm,-,N/A,,Clear,0,2013-03-09 02:15:00
9:35 PM,36.9,25.5,64,30.37,10.0,Calm,Calm,-,N/A,,Clear,0,2013-03-09 02:35:00
9:55 PM,36.1,25.7,66,30.38,10.0,Calm,Calm,-,N/A,,Clear,0,2013-03-09 02:55:00
10:15 PM,35.6,25.3,66,30.37,10.0,Calm,Calm,-,N/A,,Clear,0,2013-03-09 03:15:00
10:35 PM,35.1,25.5,68,30.37,10.0,Calm,Calm,-,N/A,,Clear,0,2013-03-09 03:35:00
10:55 PM,33.1,26.6,77,30.37,10.0,Calm,Calm,-,N/A,,Clear,0,2013-03-09 03:55:00
11:35 PM,30.9,26.8,85,30.34,10.0,ENE,4.6,-,N/A,,Clear,70,2013-03-09 04:35:00
11:55 PM,31.5,26.2,81,30.33,10.0,Calm,Calm,-,N/A,,Clear,0,2013-03-09 04:55:00